Time;durP1;ratioP1;P1;durP2;ratioP2;P2;SDS_P1;SDS_P2;PMS_P1;PMS_P2;Temp;Humidity;BMP_temperature;BMP_pressure;BME280_temperature;BME280_humidity;BME280_pressure;Samples;Min_cycle;Max_cycle;Signal;HPM_P1;HPM_P2
2021/12/04 00:01:18;;;;;;;;;;;21.60;46.60;;;;;;5095433;28;19908;-61
2021/12/04 00:03:43;;;;;;;;;;;21.60;46.60;;;;;;5095306;28;20002;-60
2021/12/04 00:06:16;;;;;;;;;;;21.60;46.60;;;;;;5095337;28;19997;-60
2021/12/04 00:08:44;;;;;;;;;;;21.60;46.60;;;;;;5095330;28;19915;-60
2021/12/04 00:11:10;;;;;;;;;;;21.60;46.60;;;;;;5095244;28;19951;-60
2021/12/04 00:13:35;;;;;;;;;;;21.60;46.60;;;;;;5094625;28;19915;-60
2021/12/04 00:16:01;;;;;;;;;;;21.60;46.60;;;;;;5095027;28;19917;-60
2021/12/04 00:18:26;;;;;;;;;;;21.60;46.60;;;;;;5076849;28;19908;-60
2021/12/04 00:20:52;;;;;;;;;;;21.50;46.50;;;;;;5095076;28;19908;-60
2021/12/04 00:23:17;;;;;;;;;;;21.60;46.60;;;;;;5094899;28;20015;-59
2021/12/04 00:25:42;;;;;;;;;;;21.60;46.60;;;;;;5076649;28;20387;-60
2021/12/04 00:28:08;;;;;;;;;;;21.50;46.50;;;;;;5094346;28;19908;-60
2021/12/04 00:30:34;;;;;;;;;;;21.50;46.50;;;;;;5094798;28;19957;-59
2021/12/04 00:33:02;;;;;;;;;;;21.50;46.50;;;;;;5094765;28;19947;-61
2021/12/04 00:43:19;;;;;;;;;;;21.50;46.50;;;;;;5094854;28;20434;-59
2021/12/04 00:51:32;;;;;;;;;;;21.50;46.60;;;;;;5094467;28;20310;-61
2021/12/04 00:53:57;;;;;;;;;;;21.50;46.60;;;;;;5094384;28;19921;-60
2021/12/04 00:56:23;;;;;;;;;;;21.50;46.60;;;;;;5093849;28;19916;-60
2021/12/04 00:58:49;;;;;;;;;;;21.50;46.60;;;;;;5094313;28;20276;-60
2021/12/04 01:01:15;;;;;;;;;;;21.50;46.60;;;;;;5094215;28;19961;-59
2021/12/04 01:03:40;;;;;;;;;;;21.50;46.60;;;;;;5094183;28;19982;-60
2021/12/04 01:06:06;;;;;;;;;;;21.50;46.50;;;;;;5094119;28;19916;-59
2021/12/04 01:08:32;;;;;;;;;;;21.50;46.60;;;;;;5094455;28;19908;-60
2021/12/04 01:10:57;;;;;;;;;;;21.50;46.60;;;;;;5093516;28;20280;-59
2021/12/04 01:13:23;;;;;;;;;;;21.50;46.60;;;;;;5094041;28;19930;-58
2021/12/04 01:15:48;;;;;;;;;;;21.50;46.60;;;;;;5093854;28;19912;-59
2021/12/04 01:18:14;;;;;;;;;;;21.50;46.60;;;;;;5094039;28;19908;-59
2021/12/04 01:20:39;;;;;;;;;;;21.40;46.50;;;;;;5093898;28;19908;-60
2021/12/04 01:23:05;;;;;;;;;;;21.50;46.60;;;;;;5093657;28;20020;-60
2021/12/04 01:25:30;;;;;;;;;;;21.40;46.50;;;;;;5093389;28;19909;-59
2021/12/04 01:27:56;;;;;;;;;;;21.40;46.50;;;;;;5093785;28;19908;-59
2021/12/04 01:30:22;;;;;;;;;;;21.40;46.50;;;;;;5093642;28;19908;-60
2021/12/04 01:32:47;;;;;;;;;;;21.40;46.50;;;;;;5093879;28;19958;-60
2021/12/04 01:35:13;;;;;;;;;;;21.40;46.40;;;;;;5093669;28;19915;-60
2021/12/04 01:37:38;;;;;;;;;;;21.40;46.40;;;;;;5093484;28;20372;-60
2021/12/04 01:40:04;;;;;;;;;;;21.40;46.40;;;;;;5093018;28;19954;-61
2021/12/04 01:42:32;;;;;;;;;;;21.40;46.40;;;;;;5093491;28;19931;-60
2021/12/04 01:44:58;;;;;;;;;;;21.40;46.40;;;;;;5093836;28;19912;-60
2021/12/04 01:47:23;;;;;;;;;;;21.40;46.50;;;;;;5093356;28;19931;-61
2021/12/04 01:49:50;;;;;;;;;;;21.40;46.50;;;;;;5093221;28;19911;-58
2021/12/04 01:52:20;;;;;;;;;;;21.40;46.40;;;;;;5093265;28;19908;-60
2021/12/04 01:54:46;;;;;;;;;;;21.40;46.40;;;;;;5092907;28;19908;-61
2021/12/04 01:57:12;;;;;;;;;;;21.40;46.50;;;;;;5093145;28;19923;-62
2021/12/04 01:59:37;;;;;;;;;;;21.30;46.40;;;;;;5093120;28;19912;-59
2021/12/04 02:02:03;;;;;;;;;;;21.40;46.40;;;;;;5092342;28;19908;-60
2021/12/04 02:04:28;;;;;;;;;;;21.30;46.30;;;;;;5093075;28;20380;-59
2021/12/04 02:06:54;;;;;;;;;;;21.30;46.30;;;;;;5093052;28;19962;-60
2021/12/04 02:09:19;;;;;;;;;;;21.30;46.30;;;;;;5092501;28;20037;-60
2021/12/04 02:11:45;;;;;;;;;;;21.30;46.30;;;;;;5092845;28;19908;-59
2021/12/04 02:14:12;;;;;;;;;;;21.30;46.30;;;;;;5092835;28;19916;-60
2021/12/04 02:16:38;;;;;;;;;;;21.30;46.30;;;;;;5092680;28;19970;-61
2021/12/04 02:19:04;;;;;;;;;;;21.20;46.30;;;;;;5092813;28;19908;-60
2021/12/04 02:21:31;;;;;;;;;;;21.20;46.30;;;;;;5092725;28;19951;-60
2021/12/04 02:23:56;;;;;;;;;;;21.20;46.30;;;;;;5092170;28;19956;-60
2021/12/04 02:26:22;;;;;;;;;;;21.20;46.30;;;;;;5092642;28;19908;-59
2021/12/04 02:28:47;;;;;;;;;;;21.20;46.30;;;;;;5092586;28;19913;-61
2021/12/04 02:31:13;;;;;;;;;;;21.20;46.30;;;;;;5092683;28;20007;-60
2021/12/04 02:33:38;;;;;;;;;;;21.20;46.40;;;;;;5092503;28;20364;-60
2021/12/04 02:36:06;;;;;;;;;;;21.20;46.30;;;;;;5092384;28;19934;-60
2021/12/04 02:38:32;;;;;;;;;;;21.20;46.30;;;;;;5091905;28;19915;-60
2021/12/04 02:41:00;;;;;;;;;;;21.20;46.30;;;;;;5092379;28;19912;-60
2021/12/04 02:43:26;;;;;;;;;;;21.20;46.30;;;;;;5092268;28;19908;-59
2021/12/04 02:45:51;;;;;;;;;;;21.20;46.30;;;;;;5074137;28;19908;-60
2021/12/04 02:48:17;;;;;;;;;;;21.20;46.30;;;;;;5092191;28;19947;-59
2021/12/04 02:50:42;;;;;;;;;;;21.20;46.30;;;;;;5092204;28;19909;-59
2021/12/04 02:53:08;;;;;;;;;;;21.20;46.30;;;;;;5091703;28;20003;-60
2021/12/04 02:55:35;;;;;;;;;;;21.20;46.30;;;;;;5092233;28;19908;-60
2021/12/04 02:58:00;;;;;;;;;;;21.20;46.30;;;;;;5092149;28;19913;-60
2021/12/04 03:00:26;;;;;;;;;;;21.20;46.30;;;;;;5092061;28;19915;-59
2021/12/04 03:02:51;;;;;;;;;;;21.10;46.20;;;;;;5092287;28;19958;-60
2021/12/04 03:05:27;;;;;;;;;;;21.10;46.20;;;;;;5092045;28;19908;-59
2021/12/04 03:07:54;;;;;;;;;;;21.10;46.20;;;;;;5091646;28;20373;-60
2021/12/04 03:10:20;;;;;;;;;;;21.10;46.20;;;;;;5091886;28;19908;-61
2021/12/04 03:12:45;;;;;;;;;;;21.10;46.20;;;;;;5091860;28;19915;-59
2021/12/04 03:15:11;;;;;;;;;;;21.10;46.20;;;;;;5073855;28;20433;-60
2021/12/04 03:17:36;;;;;;;;;;;21.00;46.20;;;;;;5091868;28;19916;-61
2021/12/04 03:20:03;;;;;;;;;;;21.10;46.20;;;;;;5073768;28;20003;-62
2021/12/04 03:22:29;;;;;;;;;;;21.00;46.20;;;;;;5091158;28;20021;-59
2021/12/04 03:24:56;;;;;;;;;;;21.00;46.20;;;;;;5091915;28;19912;-59
2021/12/04 03:27:22;;;;;;;;;;;21.00;46.10;;;;;;5091751;28;20003;-61
2021/12/04 03:29:52;;;;;;;;;;;21.00;46.20;;;;;;5091768;28;20162;-60
2021/12/04 03:43:05;;;;;;;;;;;21.00;46.20;;;;;;5091896;28;19908;-59
2021/12/04 03:45:33;;;;;;;;;;;21.00;46.20;;;;;;5091645;28;19908;-60
2021/12/04 03:48:06;;;;;;;;;;;21.00;46.20;;;;;;5091593;28;20062;-59
2021/12/04 03:50:32;;;;;;;;;;;21.00;46.20;;;;;;5091148;28;19908;-61
2021/12/04 03:52:57;;;;;;;;;;;21.00;46.20;;;;;;5091685;28;19912;-60
2021/12/04 03:55:25;;;;;;;;;;;21.00;46.20;;;;;;5091620;28;19914;-60
2021/12/04 03:57:50;;;;;;;;;;;21.00;46.20;;;;;;5091577;28;19916;-60
2021/12/04 04:00:18;;;;;;;;;;;21.00;46.20;;;;;;5091424;28;20424;-60
2021/12/04 04:02:44;;;;;;;;;;;21.00;46.20;;;;;;5091480;28;19908;-59
2021/12/04 04:05:09;;;;;;;;;;;21.00;46.20;;;;;;5091190;28;19908;-60
2021/12/04 04:07:35;;;;;;;;;;;20.90;46.10;;;;;;5091430;28;19909;-60
2021/12/04 04:10:00;;;;;;;;;;;21.00;46.20;;;;;;5091526;28;19915;-60
2021/12/04 04:12:26;;;;;;;;;;;20.90;46.10;;;;;;5091377;28;19908;-61
2021/12/04 04:14:51;;;;;;;;;;;20.90;46.10;;;;;;5091387;28;19994;-60
2021/12/04 04:17:17;;;;;;;;;;;20.90;46.10;;;;;;5091153;28;20438;-59
2021/12/04 04:19:42;;;;;;;;;;;20.90;46.10;;;;;;5090799;28;20359;-60
2021/12/04 04:22:08;;;;;;;;;;;20.90;46.10;;;;;;5091140;28;20070;-60
2021/12/04 04:24:34;;;;;;;;;;;20.80;46.00;;;;;;5093215;28;19985;-60
2021/12/04 04:26:59;;;;;;;;;;;20.80;46.00;;;;;;5094951;28;19961;-60
2021/12/04 04:29:25;;;;;;;;;;;20.80;46.00;;;;;;5094853;28;19915;-60
2021/12/04 04:31:52;;;;;;;;;;;20.80;46.00;;;;;;5094795;28;19908;-60
2021/12/04 04:34:27;;;;;;;;;;;20.80;46.00;;;;;;5094262;28;19912;-60
2021/12/04 05:14:23;;;;;;;;;;;20.70;46.10;;;;;;5094317;28;19908;-60
2021/12/04 05:16:52;;;;;;;;;;;20.70;46.00;;;;;;5093436;28;20019;-60
2021/12/04 05:19:37;;;;;;;;;;;20.70;46.10;;;;;;5093968;28;20357;-59
2021/12/04 05:22:02;;;;;;;;;;;20.70;46.10;;;;;;5093743;28;19950;-59
2021/12/04 05:24:28;;;;;;;;;;;20.60;46.00;;;;;;5093819;28;19912;-60
2021/12/04 05:26:53;;;;;;;;;;;20.70;46.10;;;;;;5093756;28;19919;-61
2021/12/04 05:29:19;;;;;;;;;;;20.70;46.10;;;;;;5093738;28;19934;-62
2021/12/04 05:31:44;;;;;;;;;;;20.60;46.10;;;;;;5093233;28;20360;-61
2021/12/04 05:34:10;;;;;;;;;;;20.60;46.10;;;;;;5093573;28;19915;-61
2021/12/04 05:36:35;;;;;;;;;;;20.60;46.10;;;;;;5092460;28;19926;-61
2021/12/04 05:39:01;;;;;;;;;;;20.60;46.00;;;;;;5093717;28;19908;-60
2021/12/04 05:41:27;;;;;;;;;;;20.60;46.00;;;;;;5093518;28;19908;-60
2021/12/04 05:43:52;;;;;;;;;;;20.60;45.90;;;;;;5093459;28;19961;-59
2021/12/04 05:46:21;;;;;;;;;;;20.60;46.00;;;;;;5092913;28;20373;-61
2021/12/04 05:48:54;;;;;;;;;;;20.60;46.00;;;;;;5093293;28;19909;-59
2021/12/04 05:51:31;;;;;;;;;;;20.60;46.00;;;;;;5093332;28;20035;-60
2021/12/04 05:54:00;;;;;;;;;;;20.50;45.90;;;;;;5093372;28;19947;-59
2021/12/04 05:56:27;;;;;;;;;;;20.50;45.90;;;;;;5093188;28;20387;-59
2021/12/04 05:58:52;;;;;;;;;;;20.50;45.90;;;;;;5093236;28;19908;-59
2021/12/04 06:01:19;;;;;;;;;;;20.50;45.90;;;;;;5092593;28;19912;-59
2021/12/04 06:03:44;;;;;;;;;;;20.50;45.90;;;;;;5093243;28;19912;-59
2021/12/04 06:06:10;;;;;;;;;;;20.50;45.90;;;;;;5093019;28;20364;-59
2021/12/04 06:08:36;;;;;;;;;;;20.50;45.90;;;;;;5093002;28;19915;-59
2021/12/04 06:11:02;;;;;;;;;;;20.50;45.90;;;;;;5092965;28;19908;-60
2021/12/04 06:13:28;;;;;;;;;;;20.40;45.80;;;;;;5092955;28;20007;-60
2021/12/04 06:15:54;;;;;;;;;;;20.40;45.80;;;;;;5092227;28;19911;-60
2021/12/04 06:18:21;;;;;;;;;;;20.40;45.80;;;;;;5092782;28;19949;-60
2021/12/04 06:23:32;;;;;;;;;;;20.40;45.80;;;;;;5092699;28;19946;-60
2021/12/04 06:25:58;;;;;;;;;;;20.40;45.80;;;;;;5092719;28;19908;-60
2021/12/04 06:28:23;;;;;;;;;;;20.40;45.80;;;;;;5092515;28;19961;-60
2021/12/04 06:30:49;;;;;;;;;;;20.40;45.80;;;;;;5092127;28;19908;-60
2021/12/04 06:33:18;;;;;;;;;;;20.40;45.80;;;;;;5092569;28;19908;-59
2021/12/04 06:35:43;;;;;;;;;;;20.30;45.80;;;;;;5092393;28;19908;-60
2021/12/04 06:38:10;;;;;;;;;;;20.40;45.90;;;;;;5092529;28;20337;-60
2021/12/04 06:40:36;;;;;;;;;;;20.30;45.80;;;;;;5092441;28;20429;-61
2021/12/04 06:43:01;;;;;;;;;;;20.30;45.80;;;;;;5092351;28;19908;-60
2021/12/04 06:45:29;;;;;;;;;;;20.30;45.80;;;;;;5091843;28;19930;-60
2021/12/04 06:48:01;;;;;;;;;;;20.30;45.80;;;;;;5092012;28;19999;-60
2021/12/04 06:50:45;;;;;;;;;;;20.30;45.80;;;;;;5092451;28;19908;-58
2021/12/04 06:53:40;;;;;;;;;;;20.30;45.80;;;;;;5092282;28;19915;-59
2021/12/04 06:56:00;;;;;;;;;;;20.30;45.80;;;;;;5091657;28;19981;-59
2021/12/04 06:58:27;;;;;;;;;;;20.30;45.80;;;;;;5091754;28;19952;-60
2021/12/04 07:00:53;;;;;;;;;;;20.30;45.80;;;;;;5092164;28;20425;-60
2021/12/04 07:03:19;;;;;;;;;;;20.30;45.80;;;;;;5092057;28;19920;-60
2021/12/04 07:05:45;;;;;;;;;;;20.30;45.80;;;;;;5092078;28;19908;-60
2021/12/04 07:08:10;;;;;;;;;;;20.30;45.80;;;;;;5091971;28;19909;-60
2021/12/04 07:10:36;;;;;;;;;;;20.30;45.90;;;;;;5092051;28;20364;-60
2021/12/04 07:13:02;;;;;;;;;;;20.30;45.90;;;;;;5091540;28;20410;-61
2021/12/04 07:15:30;;;;;;;;;;;20.30;45.90;;;;;;5073908;28;19915;-61
2021/12/04 07:17:56;;;;;;;;;;;20.30;45.90;;;;;;5091827;28;19916;-60
2021/12/04 07:20:23;;;;;;;;;;;20.30;45.90;;;;;;5091855;28;19908;-61
2021/12/04 07:22:48;;;;;;;;;;;20.30;46.00;;;;;;5091721;28;20380;-60
2021/12/04 07:25:14;;;;;;;;;;;20.30;46.00;;;;;;5091961;28;19915;-60
2021/12/04 07:27:39;;;;;;;;;;;20.30;46.00;;;;;;5091481;28;19909;-60
2021/12/04 07:30:06;;;;;;;;;;;20.30;46.00;;;;;;5091872;28;19953;-60
2021/12/04 07:32:32;;;;;;;;;;;20.30;46.00;;;;;;5091737;28;19908;-61
2021/12/04 07:34:58;;;;;;;;;;;20.30;46.00;;;;;;5091705;28;19930;-59
2021/12/04 07:37:23;;;;;;;;;;;20.30;46.00;;;;;;5091687;28;19916;-59
2021/12/04 07:39:49;;;;;;;;;;;20.40;46.20;;;;;;5091752;28;20347;-60
2021/12/04 07:42:14;;;;;;;;;;;20.30;46.00;;;;;;5091231;28;19912;-60
2021/12/04 07:44:40;;;;;;;;;;;20.30;46.00;;;;;;5092115;28;19961;-59
2021/12/04 07:47:05;;;;;;;;;;;20.30;46.00;;;;;;5091620;28;19914;-58
2021/12/04 07:49:31;;;;;;;;;;;20.40;46.10;;;;;;5091484;28;20344;-59
2021/12/04 07:51:56;;;;;;;;;;;20.40;46.10;;;;;;5091604;28;19912;-59
2021/12/04 07:54:22;;;;;;;;;;;20.40;46.10;;;;;;5091611;28;19916;-57
2021/12/04 07:56:47;;;;;;;;;;;20.40;46.20;;;;;;5091145;28;19916;-60
2021/12/04 07:59:13;;;;;;;;;;;20.40;46.20;;;;;;5093048;28;19912;-58
2021/12/04 08:01:38;;;;;;;;;;;20.40;46.30;;;;;;5095520;28;19919;-59
2021/12/04 08:04:04;;;;;;;;;;;20.40;46.30;;;;;;5095423;28;20380;-60
2021/12/04 08:06:32;;;;;;;;;;;20.40;46.40;;;;;;5095281;28;19915;-58
2021/12/04 08:08:59;;;;;;;;;;;20.40;46.50;;;;;;5095266;28;19919;-58
2021/12/04 08:11:27;;;;;;;;;;;20.50;46.60;;;;;;5094931;28;19931;-59
2021/12/04 08:13:53;;;;;;;;;;;20.50;46.60;;;;;;5095160;28;19908;-58
2021/12/04 08:16:24;;;;;;;;;;;20.50;46.60;;;;;;5095086;28;19993;-57
2021/12/04 08:18:50;;;;;;;;;;;20.50;46.70;;;;;;5095015;28;20042;-57
2021/12/04 08:21:15;;;;;;;;;;;20.60;46.90;;;;;;5095561;28;20344;-59
2021/12/04 08:23:40;;;;;;;;;;;20.60;46.90;;;;;;5094873;28;19924;-59
2021/12/04 08:26:06;;;;;;;;;;;20.60;46.90;;;;;;5094570;28;19908;-58
2021/12/04 08:28:32;;;;;;;;;;;20.60;47.00;;;;;;5094976;28;20397;-55
2021/12/04 08:30:57;;;;;;;;;;;20.60;47.00;;;;;;5094888;28;20383;-57
2021/12/04 08:33:23;;;;;;;;;;;20.70;47.10;;;;;;5094795;28;19908;-58
2021/12/04 08:35:48;;;;;;;;;;;20.70;47.10;;;;;;5094763;28;19962;-58
2021/12/04 08:38:14;;;;;;;;;;;20.70;47.20;;;;;;5094784;28;20444;-58
2021/12/04 08:40:39;;;;;;;;;;;20.70;47.30;;;;;;5094447;28;19912;-57
2021/12/04 08:43:05;;;;;;;;;;;20.80;47.40;;;;;;5094679;28;19915;-57
2021/12/04 08:45:31;;;;;;;;;;;20.80;47.40;;;;;;5094636;28;19908;-56
2021/12/04 08:47:56;;;;;;;;;;;20.80;47.50;;;;;;5094513;28;20281;-55
2021/12/04 08:50:23;;;;;;;;;;;20.90;47.60;;;;;;5094552;28;19915;-58
2021/12/04 08:52:49;;;;;;;;;;;20.90;47.60;;;;;;5094621;28;19912;-56
2021/12/04 08:55:15;;;;;;;;;;;20.90;47.70;;;;;;5094081;28;20306;-58
2021/12/04 08:57:41;;;;;;;;;;;21.00;47.80;;;;;;5094242;28;20406;-60
2021/12/04 09:00:15;;;;;;;;;;;20.90;47.80;;;;;;5094318;28;19908;-60
2021/12/04 09:02:41;;;;;;;;;;;21.00;47.90;;;;;;5094261;28;20015;-59
2021/12/04 09:05:09;;;;;;;;;;;21.00;47.80;;;;;;5076027;28;19951;-58
2021/12/04 09:07:34;;;;;;;;;;;20.90;47.70;;;;;;5094187;28;19916;-59
2021/12/04 09:10:00;;;;;;;;;;;21.00;47.80;;;;;;5093555;28;19908;-59
2021/12/04 09:12:26;;;;;;;;;;;21.00;47.80;;;;;;5094049;28;20007;-58
2021/12/04 09:14:52;;;;;;;;;;;21.00;47.80;;;;;;5094057;28;19999;-58
2021/12/04 09:17:19;;;;;;;;;;;21.00;47.90;;;;;;5093841;28;20378;-59
2021/12/04 09:19:45;;;;;;;;;;;21.00;47.90;;;;;;5093962;28;19914;-59
2021/12/04 09:22:24;;;;;;;;;;;21.00;47.90;;;;;;5093836;28;20360;-59
2021/12/04 09:24:53;;;;;;;;;;;21.00;47.90;;;;;;5093471;28;19909;-61
2021/12/04 09:27:33;;;;;;;;;;;21.10;48.00;;;;;;5093859;28;19912;-60
2021/12/04 09:59:40;;;;;;;;;;;21.30;48.20;;;;;;5093464;28;20016;-59
2021/12/04 10:03:06;;;;;;;;;;;21.20;48.20;;;;;;5092863;28;19995;-60
2021/12/04 10:13:28;;;;;;;;;;;21.30;48.30;;;;;;5092875;28;19919;-61
2021/12/04 10:24:33;;;;;;;;;;;21.30;48.30;;;;;;5092549;28;19969;-62
2021/12/04 10:34:54;;;;;;;;;;;21.40;48.30;;;;;;5092707;28;20006;-62
2021/12/04 10:37:25;;;;;;;;;;;21.40;48.30;;;;;;5091860;28;19924;-60
2021/12/04 10:39:52;;;;;;;;;;;21.40;48.30;;;;;;5092569;28;19916;-61
2021/12/04 10:42:21;;;;;;;;;;;21.40;48.40;;;;;;5092412;28;19908;-60
2021/12/04 10:44:51;;;;;;;;;;;21.40;48.40;;;;;;5092370;28;19908;-59
2021/12/04 10:47:25;;;;;;;;;;;21.40;48.40;;;;;;5092327;28;19991;-58
2021/12/04 10:52:28;;;;;;;;;;;21.40;48.40;;;;;;5092462;28;20466;-63
2021/12/04 10:55:10;;;;;;;;;;;21.40;48.50;;;;;;5092197;28;20272;-61
2021/12/04 11:06:07;;;;;;;;;;;21.40;48.40;;;;;;5091847;28;19908;-61
2021/12/04 11:19:34;;;;;;;;;;;21.50;48.50;;;;;;5091360;28;19915;-61
2021/12/04 11:22:19;;;;;;;;;;;21.50;48.40;;;;;;5091762;28;19955;-59
2021/12/04 11:27:47;;;;;;;;;;;21.50;48.30;;;;;;5091892;28;20383;-62
2021/12/04 11:41:26;;;;;;;;;;;21.40;48.00;;;;;;5095988;28;20004;-61
2021/12/04 11:44:05;;;;;;;;;;;21.40;48.00;;;;;;5095854;28;19908;-61
2021/12/04 11:46:45;;;;;;;;;;;21.40;48.00;;;;;;5095744;28;19949;-61
2021/12/04 11:49:13;;;;;;;;;;;21.40;48.00;;;;;;5095164;28;20312;-61
2021/12/04 11:52:00;;;;;;;;;;;21.40;47.90;;;;;;5095603;28;19947;-62
2021/12/04 11:54:27;;;;;;;;;;;21.40;47.90;;;;;;5077383;28;19908;-61
2021/12/04 11:57:10;;;;;;;;;;;21.40;47.90;;;;;;5095706;28;19916;-61
2021/12/04 11:59:36;;;;;;;;;;;21.40;47.90;;;;;;5095386;28;19954;-61
2021/12/04 12:02:03;;;;;;;;;;;21.40;47.90;;;;;;5095763;28;20310;-62
2021/12/04 12:04:48;;;;;;;;;;;21.40;47.90;;;;;;5094958;28;20002;-61
2021/12/04 12:07:32;;;;;;;;;;;21.40;47.90;;;;;;5095428;28;19951;-62
2021/12/04 12:10:04;;;;;;;;;;;21.40;47.90;;;;;;5095401;28;20360;-61
2021/12/04 12:12:35;;;;;;;;;;;21.40;47.90;;;;;;5095284;28;19908;-61
2021/12/04 12:15:05;;;;;;;;;;;21.40;47.90;;;;;;5095301;28;19961;-60
2021/12/04 12:17:32;;;;;;;;;;;21.40;47.90;;;;;;5094592;28;19959;-62
2021/12/04 12:19:58;;;;;;;;;;;21.40;47.90;;;;;;5095147;28;19908;-61
2021/12/04 12:22:32;;;;;;;;;;;21.40;47.90;;;;;;5094871;28;20381;-62
2021/12/04 12:25:14;;;;;;;;;;;21.40;47.80;;;;;;5095292;28;19915;-60
2021/12/04 12:33:16;;;;;;;;;;;21.40;47.80;;;;;;5094771;28;19961;-62
2021/12/04 12:36:13;;;;;;;;;;;21.40;47.80;;;;;;5094862;28;19919;-62
2021/12/04 12:38:47;;;;;;;;;;;21.40;47.80;;;;;;5094865;28;19942;-61
2021/12/04 12:41:27;;;;;;;;;;;21.40;47.80;;;;;;5076634;28;20371;-61
2021/12/04 12:44:13;;;;;;;;;;;21.40;47.80;;;;;;5094711;28;19908;-61
2021/12/04 12:46:45;;;;;;;;;;;21.40;47.80;;;;;;5094012;28;19916;-62
2021/12/04 12:49:25;;;;;;;;;;;21.40;47.80;;;;;;5094638;28;19908;-61
2021/12/04 12:51:52;;;;;;;;;;;21.40;47.80;;;;;;5094522;28;19951;-60
2021/12/04 12:54:23;;;;;;;;;;;21.40;47.80;;;;;;5094564;28;19912;-60
2021/12/04 12:56:56;;;;;;;;;;;21.40;47.80;;;;;;5094388;28;20363;-62
2021/12/04 12:59:34;;;;;;;;;;;21.40;47.80;;;;;;5094450;28;19926;-60
2021/12/04 13:13:21;;;;;;;;;;;21.40;47.80;;;;;;5094452;28;20257;-62
2021/12/04 13:15:47;;;;;;;;;;;21.40;47.80;;;;;;5093595;28;19973;-61
2021/12/04 13:18:16;;;;;;;;;;;21.40;47.70;;;;;;5094148;28;19973;-61
2021/12/04 13:20:43;;;;;;;;;;;21.50;47.80;;;;;;5093905;28;19909;-62
2021/12/04 13:23:09;;;;;;;;;;;21.40;47.80;;;;;;5093991;28;20000;-61
2021/12/04 13:25:35;;;;;;;;;;;21.50;47.80;;;;;;5075761;28;19994;-62
2021/12/04 13:30:26;;;;;;;;;;;21.40;47.70;;;;;;5093504;28;19943;-62
2021/12/04 13:32:52;;;;;;;;;;;21.50;47.80;;;;;;5093702;28;19909;-61
2021/12/04 13:35:20;;;;;;;;;;;21.50;47.70;;;;;;5093797;28;19908;-61
2021/12/04 13:37:47;;;;;;;;;;;21.40;47.70;;;;;;5093489;28;20564;-62
2021/12/04 13:40:14;;;;;;;;;;;21.50;47.70;;;;;;5094004;28;19908;-61
2021/12/04 13:42:40;;;;;;;;;;;21.50;47.70;;;;;;5093568;28;20388;-61
2021/12/04 13:45:08;;;;;;;;;;;21.50;47.70;;;;;;5093019;28;19914;-62
2021/12/04 13:47:34;;;;;;;;;;;21.50;47.70;;;;;;5093378;28;20318;-62
2021/12/04 13:50:07;;;;;;;;;;;21.50;47.70;;;;;;5075213;28;19999;-60
2021/12/04 13:52:32;;;;;;;;;;;21.50;47.60;;;;;;5075296;28;19912;-61
2021/12/04 13:55:05;;;;;;;;;;;21.50;47.60;;;;;;5093287;28;19931;-60
2021/12/04 13:57:31;;;;;;;;;;;21.50;47.60;;;;;;5092318;28;19916;-61
2021/12/04 13:59:57;;;;;;;;;;;21.50;47.60;;;;;;5092599;28;19908;-61
2021/12/04 14:02:24;;;;;;;;;;;21.50;47.60;;;;;;5093256;28;19915;-61
2021/12/04 14:04:56;;;;;;;;;;;21.50;47.60;;;;;;5092994;28;19942;-61
2021/12/04 14:07:21;;;;;;;;;;;21.50;47.60;;;;;;5093215;28;19914;-61
2021/12/04 14:09:47;;;;;;;;;;;21.50;47.60;;;;;;5093026;28;20006;-61
2021/12/04 14:12:12;;;;;;;;;;;21.50;47.60;;;;;;5093107;28;19908;-62
2021/12/04 14:14:38;;;;;;;;;;;21.50;48.20;;;;;;5092930;28;19908;-61
2021/12/04 14:17:14;;;;;;;;;;;21.50;47.60;;;;;;5092707;28;19974;-61
2021/12/04 14:19:40;;;;;;;;;;;21.50;47.60;;;;;;5092862;28;19951;-61
2021/12/04 14:22:05;;;;;;;;;;;21.50;47.60;;;;;;5092617;28;19924;-61
2021/12/04 14:24:41;;;;;;;;;;;21.50;47.60;;;;;;5093036;28;19908;-61
2021/12/04 14:27:06;;;;;;;;;;;21.50;47.60;;;;;;5092269;28;19961;-63
2021/12/04 14:29:33;;;;;;;;;;;21.50;47.60;;;;;;5092668;28;20313;-62
2021/12/04 14:31:59;;;;;;;;;;;21.50;47.60;;;;;;5092548;28;19908;-62
2021/12/04 14:34:26;;;;;;;;;;;21.50;47.60;;;;;;5092498;28;20280;-61
2021/12/04 14:37:12;;;;;;;;;;;21.50;47.60;;;;;;5092469;28;20353;-61
2021/12/04 14:39:45;;;;;;;;;;;21.60;47.60;;;;;;5092570;28;19912;-62
2021/12/04 14:42:18;;;;;;;;;;;21.50;47.60;;;;;;5073674;28;20253;-62
2021/12/04 14:44:55;;;;;;;;;;;21.50;47.50;;;;;;5092679;28;20280;-61
2021/12/04 14:47:21;;;;;;;;;;;21.50;47.50;;;;;;5092356;28;19916;-60
2021/12/04 14:49:48;;;;;;;;;;;21.60;47.60;;;;;;5092265;28;19908;-62
2021/12/04 14:52:21;;;;;;;;;;;21.60;47.60;;;;;;5092249;28;20016;-61
2021/12/04 14:54:46;;;;;;;;;;;21.60;47.60;;;;;;5092237;28;19909;-61
2021/12/04 14:57:13;;;;;;;;;;;21.60;47.50;;;;;;5091737;28;19923;-61
2021/12/04 14:59:38;;;;;;;;;;;21.60;47.60;;;;;;5074115;28;19990;-62
2021/12/04 15:02:14;;;;;;;;;;;21.60;47.60;;;;;;5092276;28;20004;-61
2021/12/04 15:04:40;;;;;;;;;;;21.60;47.60;;;;;;5092197;28;20369;-61
2021/12/04 15:07:06;;;;;;;;;;;21.60;47.60;;;;;;5091987;28;20265;-61
2021/12/04 15:09:31;;;;;;;;;;;21.60;47.60;;;;;;5091846;28;20394;-62
2021/12/04 15:11:59;;;;;;;;;;;21.60;47.60;;;;;;5091798;28;19908;-62
2021/12/04 15:14:32;;;;;;;;;;;21.60;47.60;;;;;;5092000;28;20342;-61
2021/12/04 15:17:04;;;;;;;;;;;21.60;47.60;;;;;;5091908;28;19971;-61
2021/12/04 15:19:41;;;;;;;;;;;21.70;47.70;;;;;;5091967;28;19908;-62
2021/12/04 15:22:13;;;;;;;;;;;21.70;47.70;;;;;;5091763;28;19916;-61
2021/12/04 15:24:39;;;;;;;;;;;21.60;47.60;;;;;;5092049;28;19919;-61
2021/12/04 15:27:06;;;;;;;;;;;21.60;47.60;;;;;;5091389;28;19961;-61
2021/12/04 15:29:33;;;;;;;;;;;21.70;47.70;;;;;;5091787;28;19908;-61
2021/12/04 15:32:00;;;;;;;;;;;21.70;47.70;;;;;;5091861;28;19908;-62
2021/12/04 15:34:33;;;;;;;;;;;21.70;47.70;;;;;;5091674;28;19916;-61
2021/12/04 15:37:03;;;;;;;;;;;21.70;47.70;;;;;;5091735;28;20380;-61
2021/12/04 15:39:34;;;;;;;;;;;21.70;47.70;;;;;;5091855;28;19908;-62
2021/12/04 15:42:18;;;;;;;;;;;21.70;47.60;;;;;;5091882;28;19912;-62
2021/12/04 15:47:37;;;;;;;;;;;21.70;47.70;;;;;;5091921;28;19908;-61
2021/12/04 15:52:52;;;;;;;;;;;21.70;47.60;;;;;;5091870;28;20257;-62
2021/12/04 15:55:22;;;;;;;;;;;21.70;47.60;;;;;;5091352;28;20616;-61
2021/12/04 15:57:54;;;;;;;;;;;21.70;47.60;;;;;;5091686;28;20014;-61
2021/12/04 16:00:20;;;;;;;;;;;21.70;47.60;;;;;;5091410;28;20306;-62
2021/12/04 16:02:50;;;;;;;;;;;21.80;47.60;;;;;;5091527;28;19991;-62
2021/12/04 16:05:19;;;;;;;;;;;21.70;47.60;;;;;;5091481;28;19908;-61
2021/12/04 16:07:48;;;;;;;;;;;21.80;47.60;;;;;;5091368;28;19931;-62
2021/12/04 16:10:15;;;;;;;;;;;21.80;47.60;;;;;;5090975;28;19908;-62
2021/12/04 16:12:41;;;;;;;;;;;21.80;47.60;;;;;;5073563;28;19931;-62
2021/12/04 16:15:08;;;;;;;;;;;21.80;47.50;;;;;;5073345;28;20403;-60
2021/12/04 16:17:33;;;;;;;;;;;21.80;47.50;;;;;;5091341;28;19938;-61
2021/12/04 16:20:11;;;;;;;;;;;21.80;47.50;;;;;;5092448;28;20283;-61
2021/12/04 16:22:39;;;;;;;;;;;21.80;47.40;;;;;;5094954;28;19920;-61
2021/12/04 16:25:13;;;;;;;;;;;21.80;47.40;;;;;;5094615;28;19915;-62
2021/12/04 16:27:56;;;;;;;;;;;21.80;47.40;;;;;;5076967;28;19916;-62
2021/12/04 16:35:39;;;;;;;;;;;21.80;47.40;;;;;;5095125;28;19994;-61
2021/12/04 16:38:07;;;;;;;;;;;21.80;47.40;;;;;;5076132;28;19924;-61
2021/12/04 16:40:34;;;;;;;;;;;21.80;47.90;;;;;;5076559;28;20002;-62
2021/12/04 16:43:04;;;;;;;;;;;21.80;47.30;;;;;;5094715;28;19915;-61
2021/12/04 16:45:31;;;;;;;;;;;21.80;47.30;;;;;;5094671;28;20257;-62
2021/12/04 16:48:00;;;;;;;;;;;21.80;47.30;;;;;;5094650;28;19908;-61
2021/12/04 16:50:29;;;;;;;;;;;21.80;47.30;;;;;;5094587;28;20435;-61
2021/12/04 16:58:14;;;;;;;;;;;21.80;47.30;;;;;;5094747;28;19919;-62
2021/12/04 17:00:41;;;;;;;;;;;21.80;47.30;;;;;;5094467;28;19935;-62
2021/12/04 17:03:07;;;;;;;;;;;21.80;47.20;;;;;;5094437;28;20360;-62
2021/12/04 17:05:33;;;;;;;;;;;21.80;47.20;;;;;;5094242;28;19908;-61
2021/12/04 17:07:59;;;;;;;;;;;21.80;47.20;;;;;;5093797;28;19977;-61
2021/12/04 17:10:26;;;;;;;;;;;21.80;47.20;;;;;;5094306;28;20002;-61
2021/12/04 17:12:52;;;;;;;;;;;21.80;47.20;;;;;;5094475;28;19908;-62
2021/12/04 17:15:17;;;;;;;;;;;21.80;47.20;;;;;;5094144;28;19980;-62
2021/12/04 17:17:44;;;;;;;;;;;21.80;47.20;;;;;;5093926;28;19916;-62
2021/12/04 17:20:10;;;;;;;;;;;21.80;47.20;;;;;;5094038;28;19912;-61
2021/12/04 17:22:36;;;;;;;;;;;21.80;47.20;;;;;;5075122;28;19959;-61
2021/12/04 17:25:02;;;;;;;;;;;21.80;47.20;;;;;;5093907;28;19911;-62
2021/12/04 17:27:28;;;;;;;;;;;21.80;47.20;;;;;;5094024;28;20299;-62
2021/12/04 17:29:53;;;;;;;;;;;21.80;47.10;;;;;;5093758;28;20390;-62
2021/12/04 17:32:20;;;;;;;;;;;21.80;47.10;;;;;;5093699;28;20404;-62